createdAt,value
2024-02-03T00:02:00.596Z,2.80
2024-02-03T00:04:32.948Z,4.65
2024-02-03T00:07:04.401Z,5.65
2024-02-03T00:09:36.296Z,3.78
2024-02-03T00:12:11.879Z,4.60
2024-02-03T00:14:46.896Z,5.32
2024-02-03T00:17:17.922Z,7.47
2024-02-03T00:19:57.487Z,6.03
2024-02-03T00:22:39.315Z,8.23
2024-02-03T00:25:13.853Z,8.48
2024-02-03T00:27:45.525Z,7.28
2024-02-03T00:30:16.613Z,5.03
2024-02-03T00:32:52.218Z,4.65
2024-02-03T00:35:23.252Z,2.83
2024-02-03T00:37:55.786Z,4.13
2024-02-03T00:40:27.233Z,2.85
2024-02-03T00:42:58.092Z,3.58
2024-02-03T00:45:33.466Z,3.60
2024-02-03T00:48:04.264Z,3.47
2024-02-03T00:50:34.647Z,3.42
2024-02-03T00:53:13.670Z,3.17
2024-02-03T00:55:49.648Z,2.95
2024-02-03T00:58:19.950Z,3.20
2024-02-03T01:00:51.083Z,2.03
2024-02-03T01:03:22.491Z,2.42
2024-02-03T01:05:59.210Z,2.83
2024-02-03T01:08:31.415Z,2.30
2024-02-03T01:11:06.360Z,2.50
2024-02-03T01:13:39.520Z,2.00
2024-02-03T01:16:11.674Z,2.28
2024-02-03T01:18:49.364Z,2.58
2024-02-03T01:21:22.895Z,2.05
2024-02-03T01:23:55.223Z,1.85
2024-02-03T01:26:31.416Z,2.90
2024-02-03T01:29:06.305Z,2.03
2024-02-03T01:31:41.229Z,2.00
2024-02-03T01:34:17.162Z,1.45
2024-02-03T01:36:50.991Z,2.90
2024-02-03T01:39:24.847Z,1.67
2024-02-03T01:41:56.241Z,2.65
2024-02-03T01:44:39.275Z,2.50
2024-02-03T01:47:14.960Z,3.75
2024-02-03T01:49:45.918Z,2.35
2024-02-03T01:52:17.331Z,2.03
2024-02-03T01:54:52.917Z,1.95
2024-02-03T01:57:27.802Z,2.90
2024-02-03T01:59:59.055Z,2.20
2024-02-03T02:02:42.220Z,2.20
2024-02-03T02:05:13.912Z,2.35
2024-02-03T02:07:48.397Z,2.25
2024-02-03T02:10:20.644Z,2.05
2024-02-03T02:12:51.486Z,1.20
2024-02-03T02:15:27.292Z,1.20
2024-02-03T02:18:11.899Z,0.98
2024-02-03T02:20:42.762Z,1.20
2024-02-03T02:23:23.173Z,1.25
2024-02-03T02:25:54.700Z,0.95
2024-02-03T02:28:36.205Z,1.33
2024-02-03T02:31:07.447Z,0.90
2024-02-03T02:33:39.302Z,0.98
2024-02-03T02:36:14.382Z,0.70
2024-02-03T02:38:46.616Z,0.90
2024-02-03T02:41:17.716Z,0.82
2024-02-03T02:43:50.763Z,0.60
2024-02-03T02:46:29.139Z,0.70
2024-02-03T02:49:00.104Z,0.60
2024-02-03T02:51:31.999Z,1.02
2024-02-03T02:54:06.499Z,0.70
2024-02-03T02:56:37.614Z,0.82
2024-02-03T02:59:09.170Z,0.77
2024-02-03T03:01:39.622Z,0.60
2024-02-03T03:04:09.756Z,0.70
2024-02-03T03:06:40.894Z,1.10
2024-02-03T03:09:12.810Z,0.70
2024-02-03T03:11:43.450Z,0.80
2024-02-03T03:14:14.761Z,0.75
2024-02-03T03:16:46.873Z,0.80
2024-02-03T03:19:17.535Z,0.93
2024-02-03T03:21:47.936Z,0.70
2024-02-03T03:24:19.027Z,1.13
2024-02-03T03:26:49.417Z,0.60
2024-02-03T03:29:19.881Z,0.90
2024-02-03T03:31:49.808Z,0.68
2024-02-03T03:34:20.719Z,0.77
2024-02-03T03:36:51.351Z,1.00
2024-02-03T03:39:22.067Z,0.93
2024-02-03T03:41:52.569Z,0.60
2024-02-03T03:44:23.945Z,1.00
2024-02-03T03:46:54.452Z,0.73
2024-02-03T03:49:24.858Z,0.80
2024-02-03T03:51:55.992Z,0.70
2024-02-03T03:54:27.085Z,0.70
2024-02-03T03:56:59.604Z,0.82
2024-02-03T03:59:33.696Z,0.82
2024-02-03T04:02:04.466Z,0.65
2024-02-03T04:04:34.692Z,0.73
2024-02-03T04:07:05.801Z,0.80
2024-02-03T04:09:36.434Z,0.80
2024-02-03T04:12:12.679Z,0.60
2024-02-03T04:14:49.286Z,0.70
2024-02-03T04:17:20.327Z,0.98
2024-02-03T04:19:54.416Z,0.70
2024-02-03T04:22:24.429Z,0.80
2024-02-03T04:25:03.529Z,0.65
2024-02-03T04:27:34.035Z,0.70
2024-02-03T04:30:21.748Z,0.82
2024-02-03T04:32:55.211Z,0.68
2024-02-03T04:35:27.030Z,0.77
2024-02-03T04:38:06.181Z,0.63
2024-02-03T04:40:37.514Z,0.82
2024-02-03T04:43:08.254Z,0.63
2024-02-03T04:45:38.564Z,0.93
2024-02-03T04:48:09.541Z,0.80
2024-02-03T04:50:41.973Z,0.80
2024-02-03T04:53:14.572Z,0.70
2024-02-03T04:55:48.254Z,0.60
2024-02-03T04:58:21.659Z,0.73
2024-02-03T05:00:53.117Z,0.70
2024-02-03T05:03:23.739Z,0.52
2024-02-03T05:05:54.085Z,0.63
2024-02-03T05:08:24.243Z,0.57
2024-02-03T05:10:54.896Z,0.70
2024-02-03T05:13:26.214Z,0.70
2024-02-03T05:15:58.748Z,0.50
2024-02-03T05:18:30.239Z,0.88
2024-02-03T05:21:00.961Z,0.80
2024-02-03T05:23:31.193Z,0.70
2024-02-03T05:26:04.624Z,0.70
2024-02-03T05:28:38.465Z,0.70
2024-02-03T05:31:08.685Z,0.90
2024-02-03T05:33:40.148Z,0.80
2024-02-03T05:36:12.160Z,0.77
2024-02-03T05:38:42.685Z,0.70
2024-02-03T05:41:13.115Z,0.95
2024-02-03T05:43:43.511Z,0.88
2024-02-03T05:46:13.724Z,0.82
2024-02-03T05:48:43.954Z,0.77
2024-02-03T05:53:58.733Z,0.90
2024-02-03T05:56:30.239Z,0.85
2024-02-03T05:59:14.244Z,0.90
2024-02-03T06:01:53.533Z,1.08
2024-02-03T06:04:24.199Z,0.80
2024-02-03T06:06:54.563Z,1.30
2024-02-03T06:09:28.101Z,0.77
2024-02-03T06:11:59.049Z,0.95
2024-02-03T06:14:30.143Z,1.08
2024-02-03T06:17:02.888Z,0.95
2024-02-03T06:19:33.449Z,1.05
2024-02-03T06:22:06.780Z,0.80
2024-02-03T06:24:40.507Z,1.13
2024-02-03T06:27:11.079Z,0.80
2024-02-03T06:29:47.234Z,1.05
2024-02-03T06:32:17.653Z,0.90
2024-02-03T06:34:48.437Z,1.13
2024-02-03T06:37:18.726Z,1.00
2024-02-03T06:39:49.252Z,0.90
2024-02-03T06:42:19.347Z,1.08
2024-02-03T06:44:50.564Z,0.90
2024-02-03T06:47:22.390Z,0.93
2024-02-03T06:49:52.363Z,1.20
2024-02-03T06:52:22.803Z,1.10
2024-02-03T06:54:53.077Z,0.90
2024-02-03T06:57:24.217Z,1.10
2024-02-03T06:59:56.259Z,1.13
2024-02-03T07:02:26.782Z,1.15
2024-02-03T07:04:57.456Z,1.40
2024-02-03T07:07:29.286Z,0.90
2024-02-03T07:10:01.612Z,1.10
2024-02-03T07:12:32.294Z,1.27
2024-02-03T07:15:02.524Z,1.60
2024-02-03T07:17:32.538Z,1.60
2024-02-03T07:20:02.677Z,1.08
2024-02-03T07:22:32.851Z,1.23
2024-02-03T07:25:03.000Z,0.77
2024-02-03T07:27:33.795Z,1.10
2024-02-03T07:30:03.738Z,1.10
2024-02-03T07:32:34.110Z,1.13
2024-02-03T07:35:05.137Z,1.10
2024-02-03T07:37:35.694Z,1.25
2024-02-03T07:40:05.932Z,1.38
2024-02-03T07:42:36.076Z,1.40
2024-02-03T07:45:07.722Z,1.17
2024-02-03T07:47:38.511Z,1.23
2024-02-03T07:50:09.322Z,1.15
2024-02-03T07:52:39.771Z,1.17
2024-02-03T07:55:10.390Z,1.02
2024-02-03T07:57:41.129Z,0.90
2024-02-03T08:00:12.159Z,1.40
2024-02-03T08:02:43.048Z,1.20
2024-02-03T08:05:13.427Z,1.10
2024-02-03T08:07:43.610Z,1.10
2024-02-03T08:10:14.376Z,1.20
2024-02-03T08:12:44.417Z,1.23
2024-02-03T08:15:14.679Z,1.10
2024-02-03T08:17:45.235Z,1.20
2024-02-03T08:20:16.046Z,1.10
2024-02-03T08:22:46.545Z,1.17
2024-02-03T08:25:17.879Z,1.40
2024-02-03T08:27:48.482Z,1.50
2024-02-03T08:30:18.747Z,1.20
2024-02-03T08:32:49.754Z,1.02
2024-02-03T08:35:20.103Z,1.35
2024-02-03T08:37:51.333Z,1.20
2024-02-03T08:40:21.992Z,1.08
2024-02-03T08:42:53.256Z,1.20
2024-02-03T08:45:24.158Z,1.20
2024-02-03T08:47:54.920Z,1.45
2024-02-03T08:50:25.663Z,1.30
2024-02-03T08:52:55.541Z,1.20
2024-02-03T08:55:26.761Z,1.40
2024-02-03T08:57:58.107Z,1.10
2024-02-03T09:00:30.199Z,1.20
2024-02-03T09:03:01.499Z,1.35
2024-02-03T09:05:32.438Z,1.23
2024-02-03T09:08:02.690Z,1.25
2024-02-03T09:10:33.419Z,1.40
2024-02-03T09:13:03.739Z,1.23
2024-02-03T09:15:33.937Z,1.10
2024-02-03T09:18:04.478Z,1.50
2024-02-03T09:20:35.220Z,1.25
2024-02-03T09:23:06.115Z,1.70
2024-02-03T09:25:36.677Z,2.67
2024-02-03T09:28:09.261Z,4.45
2024-02-03T09:30:39.701Z,4.72
2024-02-03T09:33:10.103Z,4.63
2024-02-03T09:35:40.775Z,3.78
2024-02-03T09:38:10.988Z,4.03
2024-02-03T09:40:40.934Z,4.70
2024-02-03T09:43:12.102Z,4.20
2024-02-03T09:45:43.001Z,3.50
2024-02-03T09:48:13.625Z,4.63
2024-02-03T09:50:43.895Z,5.40
2024-02-03T09:53:15.410Z,4.47
2024-02-03T09:55:46.392Z,4.60
2024-02-03T09:58:17.414Z,3.90
2024-02-03T10:00:53.159Z,4.40
2024-02-03T10:03:24.207Z,5.00
2024-02-03T10:06:06.296Z,5.20
2024-02-03T10:08:37.302Z,5.55
2024-02-03T10:11:08.273Z,6.63
2024-02-03T10:13:38.784Z,5.20
2024-02-03T10:16:11.346Z,4.38
2024-02-03T10:18:42.271Z,3.53
2024-02-03T10:21:12.919Z,4.78
2024-02-03T10:23:53.956Z,4.22
2024-02-03T10:26:24.646Z,3.15
2024-02-03T10:28:55.204Z,4.78
2024-02-03T10:31:26.594Z,4.38
2024-02-03T10:33:58.264Z,4.38
2024-02-03T10:36:28.953Z,3.20
2024-02-03T10:38:59.237Z,2.88
2024-02-03T10:41:35.546Z,2.42
2024-02-03T10:44:09.967Z,2.95
2024-02-03T10:46:43.665Z,3.47
2024-02-03T10:49:19.559Z,3.58
2024-02-03T10:51:53.428Z,5.13
2024-02-03T10:54:28.373Z,3.65
2024-02-03T10:59:32.697Z,3.15
2024-02-03T11:02:04.022Z,3.90
2024-02-03T11:04:42.267Z,2.80
2024-02-03T11:07:24.398Z,3.38
2024-02-03T11:09:56.855Z,3.05
2024-02-03T11:12:38.990Z,3.22
2024-02-03T11:15:13.716Z,2.58
2024-02-03T11:17:48.671Z,1.90
2024-02-03T11:20:24.640Z,4.43
2024-02-03T11:22:57.837Z,3.13
2024-02-03T11:25:31.190Z,3.53
2024-02-03T11:28:07.277Z,2.10
2024-02-03T11:30:37.787Z,2.65
2024-02-03T11:33:10.249Z,3.25
2024-02-03T11:35:40.793Z,3.10
2024-02-03T11:38:11.940Z,2.28
2024-02-03T11:40:47.298Z,2.65
2024-02-03T11:43:18.921Z,2.47
2024-02-03T11:45:54.111Z,3.15
2024-02-03T11:48:24.944Z,3.15
2024-02-03T11:50:56.398Z,2.53
2024-02-03T11:53:30.896Z,3.08
2024-02-03T11:56:02.376Z,3.00
2024-02-03T11:58:33.428Z,2.28
2024-02-03T12:01:21.810Z,2.83
2024-02-03T12:03:52.591Z,2.30
2024-02-03T12:06:24.333Z,2.45
2024-02-03T12:08:54.982Z,3.03
2024-02-03T12:11:27.308Z,2.10
2024-02-03T12:13:59.046Z,2.13
2024-02-03T12:16:32.670Z,2.88
2024-02-03T12:19:06.920Z,2.08
2024-02-03T12:21:37.981Z,2.80
2024-02-03T12:24:16.335Z,2.20
2024-02-03T12:26:47.146Z,1.85
2024-02-03T12:29:19.378Z,2.55
2024-02-03T12:31:50.094Z,2.42
2024-02-03T12:34:21.861Z,2.47
2024-02-03T12:36:53.759Z,2.45
2024-02-03T12:39:25.006Z,1.83
2024-02-03T12:42:00.253Z,2.33
2024-02-03T12:44:32.326Z,2.88
2024-02-03T12:47:04.275Z,3.08
2024-02-03T12:49:36.399Z,2.30
2024-02-03T12:52:08.351Z,2.22
2024-02-03T12:54:44.273Z,3.25
2024-02-03T12:57:27.969Z,2.47
2024-02-03T13:00:01.775Z,2.58
2024-02-03T13:02:33.364Z,2.17
2024-02-03T13:05:07.429Z,2.85
2024-02-03T13:07:41.698Z,2.78
2024-02-03T13:10:15.110Z,2.92
2024-02-03T13:12:46.335Z,2.97
2024-02-03T13:15:17.342Z,3.38
2024-02-03T13:17:49.909Z,2.80
2024-02-03T13:20:24.434Z,2.35
2024-02-03T13:22:56.152Z,2.30
2024-02-03T13:25:26.717Z,2.42
2024-02-03T13:27:57.448Z,2.70
2024-02-03T13:30:28.626Z,3.25
2024-02-03T13:33:02.159Z,3.15
2024-02-03T13:35:34.092Z,2.83
2024-02-03T13:38:07.885Z,2.63
2024-02-03T13:40:38.580Z,2.08
2024-02-03T13:43:09.440Z,3.47
2024-02-03T13:45:43.236Z,2.28
2024-02-03T13:48:15.229Z,2.83
2024-02-03T13:50:46.063Z,2.33
2024-02-03T13:53:17.301Z,2.45
2024-02-03T13:55:47.903Z,2.40
2024-02-03T13:58:19.607Z,3.53
2024-02-03T14:00:53.631Z,3.00
2024-02-03T14:03:31.739Z,3.05
2024-02-03T14:06:02.435Z,2.00
2024-02-03T14:09:01.258Z,2.03
2024-02-03T14:11:42.092Z,2.70
2024-02-03T14:14:38.099Z,2.72
2024-02-03T14:17:11.062Z,2.17
2024-02-03T14:19:42.704Z,2.60
2024-02-03T14:22:22.411Z,1.92
2024-02-03T14:24:59.048Z,1.85
2024-02-03T14:27:34.800Z,2.70
2024-02-03T14:30:10.309Z,2.53
2024-02-03T14:32:42.971Z,2.90
2024-02-03T14:35:13.804Z,2.25
2024-02-03T14:37:49.177Z,2.40
2024-02-03T14:40:20.218Z,3.03
2024-02-03T14:42:53.630Z,3.13
2024-02-03T14:45:27.671Z,2.50
2024-02-03T14:48:02.864Z,2.90
2024-02-03T14:50:38.190Z,2.67
2024-02-03T14:53:08.961Z,2.60
2024-02-03T14:55:40.728Z,2.40
2024-02-03T14:58:12.835Z,3.40
2024-02-03T15:00:44.893Z,3.08
2024-02-03T15:03:16.275Z,2.88
2024-02-03T15:05:46.779Z,3.17
2024-02-03T15:08:19.188Z,2.42
2024-02-03T15:10:58.114Z,2.70
2024-02-03T15:13:28.972Z,2.83
2024-02-03T15:16:02.782Z,2.03
2024-02-03T15:18:34.099Z,2.50
2024-02-03T15:21:05.462Z,2.50
2024-02-03T15:23:35.949Z,2.38
2024-02-03T15:26:13.773Z,2.78
2024-02-03T15:28:45.808Z,2.58
2024-02-03T15:31:17.287Z,3.42
2024-02-03T15:33:48.770Z,3.25
2024-02-03T15:36:19.419Z,3.40
2024-02-03T15:38:50.200Z,2.92
2024-02-03T15:41:20.704Z,3.28
2024-02-03T15:43:52.474Z,3.22
2024-02-03T15:46:33.533Z,2.95
2024-02-03T15:49:10.826Z,3.15
2024-02-03T15:51:42.355Z,3.08
2024-02-03T15:54:13.060Z,4.40
2024-02-03T15:56:44.205Z,4.20
2024-02-03T15:59:16.487Z,4.43
2024-02-03T16:01:49.563Z,3.08
2024-02-03T16:04:21.805Z,2.08
2024-02-03T16:06:54.565Z,2.80
2024-02-03T16:09:27.119Z,2.70
2024-02-03T16:12:07.676Z,2.58
2024-02-03T16:14:42.513Z,3.00
2024-02-03T16:17:14.044Z,2.75
2024-02-03T16:19:45.320Z,2.50
2024-02-03T16:22:19.260Z,3.13
2024-02-03T16:24:50.623Z,3.30
2024-02-03T16:27:24.053Z,2.88
2024-02-03T16:29:55.178Z,3.28
2024-02-03T16:32:27.809Z,3.40
2024-02-03T16:34:58.770Z,3.30
2024-02-03T16:37:51.856Z,2.75
2024-02-03T16:40:39.025Z,2.60
2024-02-03T16:43:11.571Z,4.05
2024-02-03T16:45:43.572Z,3.50
2024-02-03T16:48:17.404Z,2.83
2024-02-03T16:50:53.245Z,2.45
2024-02-03T16:53:25.228Z,4.70
2024-02-03T16:55:55.790Z,4.30
2024-02-03T16:58:26.348Z,5.57
2024-02-03T17:00:57.293Z,4.57
2024-02-03T17:03:28.197Z,3.72
2024-02-03T17:06:09.011Z,3.30
2024-02-03T17:08:40.129Z,3.70
2024-02-03T17:11:12.856Z,3.58
2024-02-03T17:13:43.387Z,3.92
2024-02-03T17:16:15.226Z,5.25
2024-02-03T17:18:53.778Z,6.35
2024-02-03T17:21:24.692Z,5.90
2024-02-03T17:23:57.901Z,5.22
2024-02-03T17:26:31.600Z,3.47
2024-02-03T17:29:03.221Z,2.92
2024-02-03T17:31:37.037Z,3.72
2024-02-03T17:34:07.867Z,2.78
2024-02-03T17:36:39.733Z,3.10
2024-02-03T17:39:10.332Z,3.42
2024-02-03T17:41:40.785Z,3.25
2024-02-03T17:44:11.485Z,2.28
2024-02-03T17:46:41.555Z,3.13
2024-02-03T17:49:14.261Z,2.22
2024-02-03T17:51:45.274Z,2.67
2024-02-03T17:54:15.567Z,3.42
2024-02-03T17:56:46.045Z,3.80
2024-02-03T17:59:21.396Z,3.00
2024-02-03T18:01:52.738Z,3.17
2024-02-03T18:04:24.610Z,2.08
2024-02-03T18:06:55.927Z,2.88
2024-02-03T18:09:28.721Z,2.97
2024-02-03T18:12:00.573Z,3.05
2024-02-03T18:14:31.056Z,2.50
2024-02-03T18:17:05.038Z,2.60
2024-02-03T18:19:41.980Z,2.80
2024-02-03T18:22:13.611Z,3.97
2024-02-03T18:24:53.343Z,3.25
2024-02-03T18:27:25.145Z,2.80
2024-02-03T18:29:56.723Z,3.20
2024-02-03T18:32:27.752Z,2.83
2024-02-03T18:34:58.760Z,4.47
2024-02-03T18:37:32.531Z,3.22
2024-02-03T18:40:04.069Z,3.10
2024-02-03T18:42:35.362Z,3.70
2024-02-03T18:45:06.937Z,2.92
2024-02-03T18:47:37.378Z,2.72
2024-02-03T18:50:08.161Z,3.42
2024-02-03T18:52:40.077Z,3.70
2024-02-03T18:55:10.848Z,2.90
2024-02-03T18:57:42.155Z,3.17
2024-02-03T19:00:13.550Z,4.07
2024-02-03T19:02:47.728Z,3.05
2024-02-03T19:05:30.735Z,2.40
2024-02-03T19:08:02.283Z,2.72
2024-02-03T19:10:34.114Z,3.20
2024-02-03T19:13:05.455Z,3.40
2024-02-03T19:15:37.191Z,2.95
2024-02-03T19:18:10.874Z,3.47
2024-02-03T19:20:41.585Z,2.75
2024-02-03T19:23:15.850Z,3.50
2024-02-03T19:25:53.067Z,2.70
2024-02-03T19:28:25.210Z,3.97
2024-02-03T19:31:04.405Z,3.15
2024-02-03T19:33:37.155Z,2.80
2024-02-03T19:36:09.101Z,2.85
2024-02-03T19:38:39.851Z,3.35
2024-02-03T19:41:12.539Z,3.47
2024-02-03T19:43:43.700Z,3.38
2024-02-03T19:46:14.190Z,3.45
2024-02-03T19:48:44.649Z,2.72
2024-02-03T19:51:15.463Z,3.65
2024-02-03T19:53:46.250Z,3.20
2024-02-03T19:56:17.075Z,2.78
2024-02-03T19:58:48.470Z,3.30
2024-02-03T20:01:19.459Z,3.40
2024-02-03T20:03:53.844Z,3.58
2024-02-03T20:06:24.594Z,3.78
2024-02-03T20:08:55.618Z,3.08
2024-02-03T20:11:26.219Z,4.18
2024-02-03T20:13:58.236Z,3.13
2024-02-03T20:16:46.202Z,3.55
2024-02-03T20:19:17.776Z,3.22
2024-02-03T20:21:48.483Z,3.03
2024-02-03T20:24:20.895Z,3.88
2024-02-03T20:26:53.747Z,3.05
2024-02-03T20:29:29.784Z,3.35
2024-02-03T20:32:09.893Z,3.40
2024-02-03T20:34:41.498Z,4.25
2024-02-03T20:37:17.405Z,3.60
2024-02-03T20:40:08.061Z,3.20
2024-02-03T20:42:44.141Z,4.57
2024-02-03T20:45:15.223Z,3.28
2024-02-03T20:47:45.829Z,3.35
2024-02-03T20:50:16.839Z,3.75
2024-02-03T20:52:53.352Z,3.42
2024-02-03T21:01:01.415Z,3.20
2024-02-03T21:03:35.880Z,4.03
2024-02-03T21:09:35.806Z,4.60
2024-02-03T21:12:08.010Z,3.88
2024-02-03T21:14:40.222Z,4.15
2024-02-03T21:17:11.676Z,3.20
2024-02-03T21:19:49.066Z,3.72
2024-02-03T21:22:21.392Z,4.22
2024-02-03T21:24:54.842Z,3.97
2024-02-03T21:27:25.191Z,3.58
2024-02-03T21:29:56.203Z,4.18
2024-02-03T21:32:26.912Z,4.68
2024-02-03T21:34:57.768Z,4.22
2024-02-03T21:37:35.958Z,4.50
2024-02-03T21:40:07.681Z,3.22
2024-02-03T21:42:39.056Z,3.53
2024-02-03T21:45:10.143Z,4.65
2024-02-03T21:47:44.472Z,4.25
2024-02-03T21:51:19.947Z,4.63
2024-02-03T21:53:51.910Z,4.57
2024-02-03T21:56:24.144Z,4.25
2024-02-03T21:58:54.779Z,4.35
2024-02-03T22:01:25.687Z,3.47
2024-02-03T22:03:56.642Z,3.60
2024-02-03T22:06:30.158Z,4.60
2024-02-03T22:09:01.200Z,4.38
2024-02-03T22:24:05.853Z,5.68
2024-02-03T22:31:28.389Z,4.82
2024-02-03T22:34:50.215Z,6.40
2024-02-03T22:41:28.786Z,4.72
2024-02-03T22:44:34.059Z,4.88
2024-02-03T22:50:36.514Z,4.07
2024-02-03T22:53:55.912Z,4.32
2024-02-03T23:00:09.039Z,4.50
2024-02-03T23:02:46.315Z,6.05
2024-02-03T23:05:20.529Z,5.28
2024-02-03T23:08:10.900Z,5.10
2024-02-03T23:10:58.820Z,6.20
2024-02-03T23:14:05.855Z,6.35
2024-02-03T23:23:33.991Z,7.55
2024-02-03T23:26:23.040Z,7.65
2024-02-03T23:32:48.349Z,7.88
2024-02-03T23:35:19.053Z,6.95
2024-02-03T23:38:35.917Z,7.43
